sensor_id;sensor_type;location;lat;lon;timestamp;pressure;altitude;pressure_sealevel;temperature;humidity
56241;BME280;42155;53.096;23.226;2023-04-06T00:00:56;100480.69;;;0.78;61.26
56241;BME280;42155;53.096;23.226;2023-04-06T00:02:56;100479.81;;;0.79;61.41
56241;BME280;42155;53.096;23.226;2023-04-06T00:04:56;100444.97;;;0.52;61.68
56241;BME280;42155;53.096;23.226;2023-04-06T00:06:57;100469.66;;;0.70;61.49
56241;BME280;42155;53.096;23.226;2023-04-06T00:08:58;100459.50;;;0.61;62.10
56241;BME280;42155;53.096;23.226;2023-04-06T00:10:58;100473.06;;;0.72;61.82
56241;BME280;42155;53.096;23.226;2023-04-06T00:12:59;100472.97;;;0.75;62.34
56241;BME280;42155;53.096;23.226;2023-04-06T00:14:59;100466.03;;;0.74;61.65
56241;BME280;42155;53.096;23.226;2023-04-06T00:16:59;100470.50;;;0.70;62.23
56241;BME280;42155;53.096;23.226;2023-04-06T00:19:00;100471.25;;;0.74;61.94
56241;BME280;42155;53.096;23.226;2023-04-06T00:21:00;100469.44;;;0.76;62.16
56241;BME280;42155;53.096;23.226;2023-04-06T00:23:00;100470.34;;;0.75;62.50
56241;BME280;42155;53.096;23.226;2023-04-06T00:25:01;100468.69;;;0.72;62.33
56241;BME280;42155;53.096;23.226;2023-04-06T00:27:01;100462.59;;;0.72;62.33
56241;BME280;42155;53.096;23.226;2023-04-06T00:29:01;100467.81;;;0.72;61.96
56241;BME280;42155;53.096;23.226;2023-04-06T00:31:02;100379.09;;;0.16;62.44
56241;BME280;42155;53.096;23.226;2023-04-06T00:33:02;100422.06;;;0.32;62.24
56241;BME280;42155;53.096;23.226;2023-04-06T00:35:03;100464.66;;;0.62;62.35
56241;BME280;42155;53.096;23.226;2023-04-06T00:37:04;100430.38;;;0.45;62.79
56241;BME280;42155;53.096;23.226;2023-04-06T00:39:04;100459.56;;;0.58;62.33
56241;BME280;42155;53.096;23.226;2023-04-06T00:41:04;100457.03;;;0.56;63.02
56241;BME280;42155;53.096;23.226;2023-04-06T00:43:08;100452.69;;;0.55;62.93
56241;BME280;42155;53.096;23.226;2023-04-06T00:45:09;100426.34;;;0.35;63.06
56241;BME280;42155;53.096;23.226;2023-04-06T00:47:09;100432.34;;;0.38;62.60
56241;BME280;42155;53.096;23.226;2023-04-06T00:49:10;100414.50;;;0.24;62.68
56241;BME280;42155;53.096;23.226;2023-04-06T00:51:10;100449.97;;;0.58;63.09
56241;BME280;42155;53.096;23.226;2023-04-06T00:53:10;100398.56;;;0.32;63.10
56241;BME280;42155;53.096;23.226;2023-04-06T00:55:11;100447.44;;;0.57;62.89
56241;BME280;42155;53.096;23.226;2023-04-06T00:57:12;100431.19;;;0.47;62.94
56241;BME280;42155;53.096;23.226;2023-04-06T00:59:12;100446.56;;;0.56;63.47
56241;BME280;42155;53.096;23.226;2023-04-06T01:01:13;100418.22;;;0.44;63.53
56241;BME280;42155;53.096;23.226;2023-04-06T01:03:13;100440.50;;;0.56;63.68
56241;BME280;42155;53.096;23.226;2023-04-06T01:05:14;100440.50;;;0.56;63.20
56241;BME280;42155;53.096;23.226;2023-04-06T01:07:14;100374.66;;;0.18;63.71
56241;BME280;42155;53.096;23.226;2023-04-06T01:09:16;100405.41;;;0.36;63.58
56241;BME280;42155;53.096;23.226;2023-04-06T01:11:17;100437.06;;;0.54;63.91
56241;BME280;42155;53.096;23.226;2023-04-06T01:13:17;100424.91;;;0.53;63.38
56241;BME280;42155;53.096;23.226;2023-04-06T01:15:18;100425.72;;;0.55;64.01
56241;BME280;42155;53.096;23.226;2023-04-06T01:17:19;100429.19;;;0.55;63.60
56241;BME280;42155;53.096;23.226;2023-04-06T01:19:19;100437.06;;;0.54;64.07
56241;BME280;42155;53.096;23.226;2023-04-06T01:21:20;100379.66;;;0.25;63.77
56241;BME280;42155;53.096;23.226;2023-04-06T01:23:21;100421.59;;;0.47;63.95
56241;BME280;42155;53.096;23.226;2023-04-06T01:25:21;100420.47;;;0.56;64.09
56241;BME280;42155;53.096;23.226;2023-04-06T01:27:21;100416.94;;;0.57;63.98
56241;BME280;42155;53.096;23.226;2023-04-06T01:29:22;100410.88;;;0.57;63.56
56241;BME280;42155;53.096;23.226;2023-04-06T01:31:23;100409.25;;;0.53;64.44
56241;BME280;42155;53.096;23.226;2023-04-06T01:33:23;100374.13;;;0.35;64.49
56241;BME280;42155;53.096;23.226;2023-04-06T01:35:26;100410.09;;;0.53;64.63
56241;BME280;42155;53.096;23.226;2023-04-06T01:37:27;100416.25;;;0.50;64.82
56241;BME280;42155;53.096;23.226;2023-04-06T01:39:27;100416.25;;;0.50;64.32
56241;BME280;42155;53.096;23.226;2023-04-06T01:41:27;100416.09;;;0.57;64.46
56241;BME280;42155;53.096;23.226;2023-04-06T01:43:28;100414.28;;;0.59;64.77
56241;BME280;42155;53.096;23.226;2023-04-06T01:45:28;100386.84;;;0.45;64.33
56241;BME280;42155;53.096;23.226;2023-04-06T01:47:28;100408.19;;;0.58;64.35
56241;BME280;42155;53.096;23.226;2023-04-06T01:49:29;100354.31;;;0.29;64.99
56241;BME280;42155;53.096;23.226;2023-04-06T01:51:29;100400.41;;;0.57;64.60
56241;BME280;42155;53.096;23.226;2023-04-06T01:53:29;100408.19;;;0.58;65.13
56241;BME280;42155;53.096;23.226;2023-04-06T01:55:30;100401.22;;;0.59;64.80
56241;BME280;42155;53.096;23.226;2023-04-06T01:57:30;100386.81;;;0.47;65.14
56241;BME280;42155;53.096;23.226;2023-04-06T01:59:30;100395.91;;;0.62;64.76
56241;BME280;42155;53.096;23.226;2023-04-06T02:01:30;100376.09;;;0.55;65.06
56241;BME280;42155;53.096;23.226;2023-04-06T02:03:31;100397.66;;;0.61;64.67
56241;BME280;42155;53.096;23.226;2023-04-06T02:05:32;100402.75;;;0.64;65.39
56241;BME280;42155;53.096;23.226;2023-04-06T02:07:33;100394.91;;;0.66;64.99
56241;BME280;42155;53.096;23.226;2023-04-06T02:09:33;100383.53;;;0.67;65.46
56241;BME280;42155;53.096;23.226;2023-04-06T02:11:34;100379.31;;;0.63;65.50
56241;BME280;42155;53.096;23.226;2023-04-06T02:13:34;100362.25;;;0.53;65.45
56241;BME280;42155;53.096;23.226;2023-04-06T02:15:34;100379.09;;;0.69;65.65
56241;BME280;42155;53.096;23.226;2023-04-06T02:17:35;100365.19;;;0.68;65.17
56241;BME280;42155;53.096;23.226;2023-04-06T02:19:35;100381.78;;;0.67;65.85
56241;BME280;42155;53.096;23.226;2023-04-06T02:21:35;100372.09;;;0.71;65.68
56241;BME280;42155;53.096;23.226;2023-04-06T02:23:36;100267.81;;;0.13;65.50
56241;BME280;42155;53.096;23.226;2023-04-06T02:25:36;100326.69;;;0.48;65.40
56241;BME280;42155;53.096;23.226;2023-04-06T02:27:37;100366.72;;;0.75;65.25
56241;BME280;42155;53.096;23.226;2023-04-06T02:29:37;100373.69;;;0.75;65.45
56241;BME280;42155;53.096;23.226;2023-04-06T02:31:37;100337.63;;;0.60;65.69
56241;BME280;42155;53.096;23.226;2023-04-06T02:33:38;100362.34;;;0.76;65.72
56241;BME280;42155;53.096;23.226;2023-04-06T02:35:38;100355.13;;;0.83;65.59
56241;BME280;42155;53.096;23.226;2023-04-06T02:37:38;100355.13;;;0.83;65.70
56241;BME280;42155;53.096;23.226;2023-04-06T02:39:39;100345.66;;;0.80;64.96
56241;BME280;42155;53.096;23.226;2023-04-06T02:41:39;100324.38;;;0.66;65.41
56241;BME280;42155;53.096;23.226;2023-04-06T02:43:39;100350.75;;;0.83;65.65
56241;BME280;42155;53.096;23.226;2023-04-06T02:45:40;100338.88;;;0.74;65.49
56241;BME280;42155;53.096;23.226;2023-04-06T02:47:40;100347.25;;;0.84;65.60
56241;BME280;42155;53.096;23.226;2023-04-06T02:49:40;100369.88;;;0.85;65.51
56241;BME280;42155;53.096;23.226;2023-04-06T02:51:41;100347.81;;;0.92;65.38
56241;BME280;42155;53.096;23.226;2023-04-06T02:53:41;100345.28;;;0.91;65.82
56241;BME280;42155;53.096;23.226;2023-04-06T02:55:41;100310.56;;;0.62;65.79
56241;BME280;42155;53.096;23.226;2023-04-06T02:57:42;100251.50;;;0.33;65.50
56241;BME280;42155;53.096;23.226;2023-04-06T02:59:42;100355.56;;;0.95;65.46
56241;BME280;42155;53.096;23.226;2023-04-06T03:01:42;100349.50;;;0.95;65.63
56241;BME280;42155;53.096;23.226;2023-04-06T03:03:43;100329.75;;;0.86;66.46
56241;BME280;42155;53.096;23.226;2023-04-06T03:05:43;100343.63;;;0.88;66.05
56241;BME280;42155;53.096;23.226;2023-04-06T03:07:43;100341.72;;;0.93;65.86
56241;BME280;42155;53.096;23.226;2023-04-06T03:09:44;100343.41;;;0.94;66.09
56241;BME280;42155;53.096;23.226;2023-04-06T03:11:44;100316.22;;;0.75;66.48
56241;BME280;42155;53.096;23.226;2023-04-06T03:13:44;100333.22;;;0.87;66.37
56241;BME280;42155;53.096;23.226;2023-04-06T03:15:45;100346.13;;;0.91;66.60
56241;BME280;42155;53.096;23.226;2023-04-06T03:17:46;100346.41;;;0.84;66.42
56241;BME280;42155;53.096;23.226;2023-04-06T03:19:46;100342.97;;;0.82;66.84
56241;BME280;42155;53.096;23.226;2023-04-06T03:21:46;100332.63;;;0.79;66.99
56241;BME280;42155;53.096;23.226;2023-04-06T03:23:47;100330.78;;;0.82;67.09
56241;BME280;42155;53.096;23.226;2023-04-06T03:25:47;100320.69;;;0.71;67.39
56241;BME280;42155;53.096;23.226;2023-04-06T03:27:47;100312.81;;;0.73;67.34
56241;BME280;42155;53.096;23.226;2023-04-06T03:29:48;100324.84;;;0.77;67.26
56241;BME280;42155;53.096;23.226;2023-04-06T03:31:48;100331.78;;;0.78;67.99
56241;BME280;42155;53.096;23.226;2023-04-06T03:33:48;100331.91;;;0.75;67.69
56241;BME280;42155;53.096;23.226;2023-04-06T03:35:49;100338.81;;;0.76;67.99
56241;BME280;42155;53.096;23.226;2023-04-06T03:37:49;100345.66;;;0.80;67.96
56241;BME280;42155;53.096;23.226;2023-04-06T03:39:49;100287.84;;;0.39;68.34
56241;BME280;42155;53.096;23.226;2023-04-06T03:41:50;100347.44;;;0.78;68.89
56241;BME280;42155;53.096;23.226;2023-04-06T03:43:50;100342.66;;;0.66;69.02
56241;BME280;42155;53.096;23.226;2023-04-06T03:45:51;100331.81;;;0.52;69.41
56241;BME280;42155;53.096;23.226;2023-04-06T03:47:51;100356.50;;;0.68;69.21
56241;BME280;42155;53.096;23.226;2023-04-06T03:49:51;100353.03;;;0.67;69.23
56241;BME280;42155;53.096;23.226;2023-04-06T03:51:52;100349.59;;;0.67;69.49
56241;BME280;42155;53.096;23.226;2023-04-06T03:53:53;100352.25;;;0.65;69.38
56241;BME280;42155;53.096;23.226;2023-04-06T03:55:53;100347.13;;;0.62;69.85
56241;BME280;42155;53.096;23.226;2023-04-06T03:57:53;100345.38;;;0.63;69.84
56241;BME280;42155;53.096;23.226;2023-04-06T03:59:54;100325.78;;;0.49;70.46
56241;BME280;42155;53.096;23.226;2023-04-06T04:01:54;100329.41;;;0.45;70.52
56241;BME280;42155;53.096;23.226;2023-04-06T04:03:54;100347.34;;;0.56;70.69
56241;BME280;42155;53.096;23.226;2023-04-06T04:05:55;100338.66;;;0.56;71.11
56241;BME280;42155;53.096;23.226;2023-04-06T04:07:55;100342.75;;;0.63;70.55
56241;BME280;42155;53.096;23.226;2023-04-06T04:09:55;100334.06;;;0.62;71.03
56241;BME280;42155;53.096;23.226;2023-04-06T04:11:56;100341.06;;;0.62;70.86
56241;BME280;42155;53.096;23.226;2023-04-06T04:13:56;100313.03;;;0.40;71.77
56241;BME280;42155;53.096;23.226;2023-04-06T04:15:56;100332.56;;;0.55;71.41
56241;BME280;42155;53.096;23.226;2023-04-06T04:17:57;100311.09;;;0.47;71.19
56241;BME280;42155;53.096;23.226;2023-04-06T04:19:57;100338.44;;;0.62;71.22
56241;BME280;42155;53.096;23.226;2023-04-06T04:21:57;100325.59;;;0.56;71.71
56241;BME280;42155;53.096;23.226;2023-04-06T04:23:58;100338.66;;;0.56;72.13
56241;BME280;42155;53.096;23.226;2023-04-06T04:25:58;100254.41;;;-0.03;72.02
56241;BME280;42155;53.096;23.226;2023-04-06T04:27:58;100338.69;;;0.54;72.05
56241;BME280;42155;53.096;23.226;2023-04-06T04:29:59;100316.34;;;0.45;72.07
56241;BME280;42155;53.096;23.226;2023-04-06T04:31:59;100327.19;;;0.60;72.51
56241;BME280;42155;53.096;23.226;2023-04-06T04:34:00;100326.47;;;0.55;72.22
56241;BME280;42155;53.096;23.226;2023-04-06T04:36:00;100335.16;;;0.55;72.98
56241;BME280;42155;53.096;23.226;2023-04-06T04:38:00;100336.03;;;0.56;72.89
56241;BME280;42155;53.096;23.226;2023-04-06T04:40:01;100329.78;;;0.60;73.12
56241;BME280;42155;53.096;23.226;2023-04-06T04:42:01;100316.94;;;0.54;73.02
56241;BME280;42155;53.096;23.226;2023-04-06T04:44:02;100316.16;;;0.52;73.04
56241;BME280;42155;53.096;23.226;2023-04-06T04:46:02;100340.28;;;0.58;73.40
56241;BME280;42155;53.096;23.226;2023-04-06T04:48:02;100303.19;;;0.48;73.10
56241;BME280;42155;53.096;23.226;2023-04-06T04:50:03;100310.66;;;0.59;73.22
56241;BME280;42155;53.096;23.226;2023-04-06T04:52:03;100281.69;;;0.40;73.55
56241;BME280;42155;53.096;23.226;2023-04-06T04:54:04;100316.84;;;0.57;73.31
56241;BME280;42155;53.096;23.226;2023-04-06T04:56:04;100309.06;;;0.55;74.11
56241;BME280;42155;53.096;23.226;2023-04-06T04:58:05;100308.19;;;0.55;73.88
56241;BME280;42155;53.096;23.226;2023-04-06T05:00:06;100303.09;;;0.52;73.80
56241;BME280;42155;53.096;23.226;2023-04-06T05:02:06;100300.53;;;0.50;73.80
56241;BME280;42155;53.096;23.226;2023-04-06T05:04:06;100287.75;;;0.42;74.05
56241;BME280;42155;53.096;23.226;2023-04-06T05:06:07;100306.34;;;0.58;74.36
56241;BME280;42155;53.096;23.226;2023-04-06T05:08:07;100301.06;;;0.60;74.12
56241;BME280;42155;53.096;23.226;2023-04-06T05:10:08;100309.03;;;0.57;74.46
56241;BME280;42155;53.096;23.226;2023-04-06T05:12:09;100315.09;;;0.57;75.12
56241;BME280;42155;53.096;23.226;2023-04-06T05:14:09;100312.53;;;0.56;75.25
56241;BME280;42155;53.096;23.226;2023-04-06T05:16:10;100313.44;;;0.55;75.59
56241;BME280;42155;53.096;23.226;2023-04-06T05:18:12;100305.50;;;0.58;75.58
56241;BME280;42155;53.096;23.226;2023-04-06T05:20:13;100305.44;;;0.59;75.71
56241;BME280;42155;53.096;23.226;2023-04-06T05:22:13;100269.66;;;0.36;75.82
56241;BME280;42155;53.096;23.226;2023-04-06T05:24:14;100292.66;;;0.52;76.20
56241;BME280;42155;53.096;23.226;2023-04-06T05:26:14;100283.38;;;0.43;76.89
56241;BME280;42155;53.096;23.226;2023-04-06T05:28:15;100272.25;;;0.36;76.59
56241;BME280;42155;53.096;23.226;2023-04-06T05:30:15;100293.53;;;0.50;77.07
56241;BME280;42155;53.096;23.226;2023-04-06T05:32:16;100286.59;;;0.51;77.22
56241;BME280;42155;53.096;23.226;2023-04-06T05:34:16;100294.25;;;0.56;77.17
56241;BME280;42155;53.096;23.226;2023-04-06T05:36:16;100295.97;;;0.57;76.96
56241;BME280;42155;53.096;23.226;2023-04-06T05:38:17;100292.44;;;0.58;77.44
56241;BME280;42155;53.096;23.226;2023-04-06T05:40:17;100275.09;;;0.55;77.88
56241;BME280;42155;53.096;23.226;2023-04-06T05:42:18;100285.53;;;0.55;77.95
56241;BME280;42155;53.096;23.226;2023-04-06T05:44:18;100282.09;;;0.55;77.68
56241;BME280;42155;53.096;23.226;2023-04-06T05:46:18;100234.34;;;0.26;78.07
56241;BME280;42155;53.096;23.226;2023-04-06T05:48:19;100273.38;;;0.56;77.57
56241;BME280;42155;53.096;23.226;2023-04-06T05:50:19;100217.06;;;0.22;77.62
56241;BME280;42155;53.096;23.226;2023-04-06T05:52:19;100247.56;;;0.46;77.68
56241;BME280;42155;53.096;23.226;2023-04-06T05:54:20;100256.09;;;0.52;77.42
56241;BME280;42155;53.096;23.226;2023-04-06T05:56:20;100274.09;;;0.59;78.11
56241;BME280;42155;53.096;23.226;2023-04-06T05:58:20;100276.78;;;0.58;78.45
56241;BME280;42155;53.096;23.226;2023-04-06T06:00:21;100262.81;;;0.59;78.15
56241;BME280;42155;53.096;23.226;2023-04-06T06:02:21;100267.88;;;0.63;78.17
56241;BME280;42155;53.096;23.226;2023-04-06T06:04:22;100281.69;;;0.67;78.69
56241;BME280;42155;53.096;23.226;2023-04-06T06:06:22;100292.75;;;0.73;78.53
56241;BME280;42155;53.096;23.226;2023-04-06T06:08:22;100281.44;;;0.73;78.46
56241;BME280;42155;53.096;23.226;2023-04-06T06:10:23;100281.59;;;0.70;78.48
56241;BME280;42155;53.096;23.226;2023-04-06T06:12:23;100280.66;;;0.71;78.39
56241;BME280;42155;53.096;23.226;2023-04-06T06:14:24;100287.53;;;0.73;78.98
56241;BME280;42155;53.096;23.226;2023-04-06T06:16:24;100277.22;;;0.70;78.63
56241;BME280;42155;53.096;23.226;2023-04-06T06:18:24;100277.22;;;0.70;79.21
56241;BME280;42155;53.096;23.226;2023-04-06T06:20:25;100246.38;;;0.55;79.28
56241;BME280;42155;53.096;23.226;2023-04-06T06:22:25;100261.63;;;0.67;79.94
56241;BME280;42155;53.096;23.226;2023-04-06T06:24:25;100260.63;;;0.71;79.68
56241;BME280;42155;53.096;23.226;2023-04-06T06:26:25;100263.22;;;0.71;79.52
56241;BME280;42155;53.096;23.226;2023-04-06T06:28:26;100267.50;;;0.74;80.10
56241;BME280;42155;53.096;23.226;2023-04-06T06:30:26;100204.81;;;0.49;79.88
56241;BME280;42155;53.096;23.226;2023-04-06T06:32:27;100268.03;;;0.84;79.67
56241;BME280;42155;53.096;23.226;2023-04-06T06:34:27;100270.34;;;0.91;79.47
56241;BME280;42155;53.096;23.226;2023-04-06T06:36:29;100258.94;;;0.94;80.10
56241;BME280;42155;53.096;23.226;2023-04-06T06:38:29;100250.44;;;0.89;80.03
56241;BME280;42155;53.096;23.226;2023-04-06T06:40:30;100258.94;;;0.94;79.84
56241;BME280;42155;53.096;23.226;2023-04-06T06:42:30;100205.34;;;0.59;80.37
56241;BME280;42155;53.096;23.226;2023-04-06T06:44:30;100252.28;;;0.85;80.36
56241;BME280;42155;53.096;23.226;2023-04-06T06:46:31;100239.47;;;0.79;79.95
56241;BME280;42155;53.096;23.226;2023-04-06T06:48:31;100257.13;;;0.96;80.15
56241;BME280;42155;53.096;23.226;2023-04-06T06:50:31;100254.41;;;0.99;80.96
56241;BME280;42155;53.096;23.226;2023-04-06T06:52:32;100241.84;;;0.85;80.61
56241;BME280;42155;53.096;23.226;2023-04-06T06:54:32;100261.34;;;1.00;80.22
56241;BME280;42155;53.096;23.226;2023-04-06T06:56:32;100263.94;;;1.00;80.36
56241;BME280;42155;53.096;23.226;2023-04-06T06:58:33;100263.72;;;1.06;80.58
56241;BME280;42155;53.096;23.226;2023-04-06T07:00:33;100263.53;;;1.11;80.08
56241;BME280;42155;53.096;23.226;2023-04-06T07:02:34;100260.94;;;1.11;80.70
56241;BME280;42155;53.096;23.226;2023-04-06T07:04:35;100247.16;;;1.07;80.83
56241;BME280;42155;53.096;23.226;2023-04-06T07:06:36;100258.22;;;1.14;80.68
56241;BME280;42155;53.096;23.226;2023-04-06T07:08:36;100258.13;;;1.17;80.88
56241;BME280;42155;53.096;23.226;2023-04-06T07:10:36;100252.31;;;1.09;81.33
56241;BME280;42155;53.096;23.226;2023-04-06T07:12:37;100255.03;;;1.06;81.70
56241;BME280;42155;53.096;23.226;2023-04-06T07:14:37;100175.59;;;0.63;81.33
56241;BME280;42155;53.096;23.226;2023-04-06T07:16:37;100243.69;;;1.07;81.75
56241;BME280;42155;53.096;23.226;2023-04-06T07:18:38;100242.63;;;1.11;81.05
56241;BME280;42155;53.096;23.226;2023-04-06T07:20:38;100243.44;;;1.13;81.09
56241;BME280;42155;53.096;23.226;2023-04-06T07:22:40;100200.81;;;0.87;81.13
56241;BME280;42155;53.096;23.226;2023-04-06T07:24:40;100232.41;;;1.05;81.24
56241;BME280;42155;53.096;23.226;2023-04-06T07:26:42;100247.69;;;1.15;81.67
56241;BME280;42155;53.096;23.226;2023-04-06T07:28:42;100215.81;;;1.06;81.43
56241;BME280;42155;53.096;23.226;2023-04-06T07:30:42;100238.81;;;1.19;81.81
56241;BME280;42155;53.096;23.226;2023-04-06T07:32:43;100251.88;;;1.21;81.68
56241;BME280;42155;53.096;23.226;2023-04-06T07:34:43;100245.72;;;1.22;81.39
56241;BME280;42155;53.096;23.226;2023-04-06T07:36:43;100249.94;;;1.26;82.08
56241;BME280;42155;53.096;23.226;2023-04-06T07:38:44;100248.00;;;1.31;81.96
56241;BME280;42155;53.096;23.226;2023-04-06T07:40:44;100242.66;;;1.34;81.40
56241;BME280;42155;53.096;23.226;2023-04-06T07:42:45;100242.50;;;1.37;81.86
56241;BME280;42155;53.096;23.226;2023-04-06T07:44:45;100243.19;;;1.42;81.95
56241;BME280;42155;53.096;23.226;2023-04-06T07:46:46;100220.47;;;1.44;81.36
56241;BME280;42155;53.096;23.226;2023-04-06T07:48:46;100227.63;;;1.39;81.48
56241;BME280;42155;53.096;23.226;2023-04-06T07:50:46;100237.78;;;1.47;81.58
56241;BME280;42155;53.096;23.226;2023-04-06T07:52:47;100234.22;;;1.49;81.47
56241;BME280;42155;53.096;23.226;2023-04-06T07:54:47;100202.63;;;1.32;81.58
56241;BME280;42155;53.096;23.226;2023-04-06T07:56:47;100226.22;;;1.52;81.82
56241;BME280;42155;53.096;23.226;2023-04-06T07:58:48;100232.94;;;1.60;81.95
56241;BME280;42155;53.096;23.226;2023-04-06T08:00:48;100127.13;;;1.01;81.26
56241;BME280;42155;53.096;23.226;2023-04-06T08:02:48;100223.38;;;1.59;81.63
56241;BME280;42155;53.096;23.226;2023-04-06T08:04:49;100226.03;;;1.57;81.75
56241;BME280;42155;53.096;23.226;2023-04-06T08:06:49;100212.38;;;1.50;82.06
56241;BME280;42155;53.096;23.226;2023-04-06T08:08:49;100236.16;;;1.66;82.36
56241;BME280;42155;53.096;23.226;2023-04-06T08:10:50;100227.34;;;1.69;81.91
56241;BME280;42155;53.096;23.226;2023-04-06T08:12:50;100219.31;;;1.73;81.88
56241;BME280;42155;53.096;23.226;2023-04-06T08:14:50;100214.81;;;1.77;81.57
56241;BME280;42155;53.096;23.226;2023-04-06T08:16:51;100180.63;;;1.60;81.84
56241;BME280;42155;53.096;23.226;2023-04-06T08:18:51;100211.28;;;1.78;81.77
56241;BME280;42155;53.096;23.226;2023-04-06T08:20:51;100212.31;;;1.74;81.51
56241;BME280;42155;53.096;23.226;2023-04-06T08:22:52;100223.81;;;1.70;82.33
56241;BME280;42155;53.096;23.226;2023-04-06T08:24:52;100221.25;;;1.68;82.61
56241;BME280;42155;53.096;23.226;2023-04-06T08:26:52;100218.53;;;1.71;82.22
56241;BME280;42155;53.096;23.226;2023-04-06T08:28:53;100216.63;;;1.75;82.51
56241;BME280;42155;53.096;23.226;2023-04-06T08:30:53;100221.75;;;1.78;82.64
56241;BME280;42155;53.096;23.226;2023-04-06T08:32:53;100217.47;;;1.75;82.07
56241;BME280;42155;53.096;23.226;2023-04-06T08:34:54;100211.28;;;1.78;82.72
56241;BME280;42155;53.096;23.226;2023-04-06T08:36:54;100222.47;;;1.82;82.19
56241;BME280;42155;53.096;23.226;2023-04-06T08:38:55;100223.44;;;1.79;82.33
56241;BME280;42155;53.096;23.226;2023-04-06T08:40:55;100129.66;;;1.26;82.63
56241;BME280;42155;53.096;23.226;2023-04-06T08:42:56;100190.97;;;1.63;82.68
56241;BME280;42155;53.096;23.226;2023-04-06T08:45:00;100222.22;;;1.88;82.29
56241;BME280;42155;53.096;23.226;2023-04-06T08:47:01;100174.47;;;1.61;82.27
56241;BME280;42155;53.096;23.226;2023-04-06T08:49:04;100211.88;;;1.85;82.26
56241;BME280;42155;53.096;23.226;2023-04-06T08:51:05;100203.16;;;1.84;82.35
56241;BME280;42155;53.096;23.226;2023-04-06T08:53:06;100191.31;;;1.75;82.54
56241;BME280;42155;53.096;23.226;2023-04-06T08:55:06;100215.22;;;1.88;82.78
56241;BME280;42155;53.096;23.226;2023-04-06T08:57:07;100211.75;;;1.88;83.15
56241;BME280;42155;53.096;23.226;2023-04-06T08:59:09;100155.31;;;1.60;82.66
56241;BME280;42155;53.096;23.226;2023-04-06T09:01:11;100195.94;;;1.91;82.47
56241;BME280;42155;53.096;23.226;2023-04-06T09:03:13;100187.03;;;1.95;82.52
56241;BME280;42155;53.096;23.226;2023-04-06T09:05:15;100193.47;;;2.08;82.55
56241;BME280;42155;53.096;23.226;2023-04-06T09:07:16;100152.22;;;1.93;82.53
56241;BME280;42155;53.096;23.226;2023-04-06T09:09:16;100151.25;;;1.95;82.93
56241;BME280;42155;53.096;23.226;2023-04-06T09:11:17;100165.25;;;2.15;83.06
56241;BME280;42155;53.096;23.226;2023-04-06T09:13:17;100142.09;;;2.06;82.47
56241;BME280;42155;53.096;23.226;2023-04-06T09:15:20;100129.78;;;2.08;82.59
56241;BME280;42155;53.096;23.226;2023-04-06T09:17:31;100149.94;;;2.26;82.69
56241;BME280;42155;53.096;23.226;2023-04-06T09:19:32;100178.84;;;2.43;81.88
56241;BME280;42155;53.096;23.226;2023-04-06T09:21:33;100175.00;;;2.52;81.92
56241;BME280;42155;53.096;23.226;2023-04-06T09:23:33;100167.69;;;2.59;82.33
56241;BME280;42155;53.096;23.226;2023-04-06T09:25:34;100155.41;;;2.61;81.64
56241;BME280;42155;53.096;23.226;2023-04-06T09:27:38;100172.69;;;2.65;81.80
56241;BME280;42155;53.096;23.226;2023-04-06T09:29:38;100130.94;;;2.41;81.79
56241;BME280;42155;53.096;23.226;2023-04-06T09:31:38;100163.63;;;2.72;81.77
56241;BME280;42155;53.096;23.226;2023-04-06T09:33:41;100161.78;;;2.74;82.04
56241;BME280;42155;53.096;23.226;2023-04-06T09:35:49;100170.44;;;2.76;82.10
56241;BME280;42155;53.096;23.226;2023-04-06T09:37:51;100148.19;;;2.66;81.73
56241;BME280;42155;53.096;23.226;2023-04-06T09:40:02;100135.78;;;2.50;82.46
56241;BME280;42155;53.096;23.226;2023-04-06T09:42:03;100169.03;;;2.69;82.36
56241;BME280;42155;53.096;23.226;2023-04-06T09:44:11;100156.69;;;2.71;82.04
56241;BME280;42155;53.096;23.226;2023-04-06T09:46:11;100155.63;;;2.75;82.09
56241;BME280;42155;53.096;23.226;2023-04-06T09:48:12;100155.84;;;2.89;81.72
56241;BME280;42155;53.096;23.226;2023-04-06T09:50:14;100136.78;;;3.04;81.41
56241;BME280;42155;53.096;23.226;2023-04-06T09:52:15;100138.34;;;3.09;81.35
56241;BME280;42155;53.096;23.226;2023-04-06T09:54:18;100116.44;;;3.10;81.61
56241;BME280;42155;53.096;23.226;2023-04-06T09:56:23;100111.84;;;3.15;81.12
56241;BME280;42155;53.096;23.226;2023-04-06T09:58:26;100141.78;;;3.28;81.21
56241;BME280;42155;53.096;23.226;2023-04-06T10:00:29;100163.13;;;3.39;80.91
56241;BME280;42155;53.096;23.226;2023-04-06T10:05:20;100150.50;;;3.65;79.51
56241;BME280;42155;53.096;23.226;2023-04-06T10:07:22;100147.13;;;3.63;80.23
56241;BME280;42155;53.096;23.226;2023-04-06T10:09:25;100135.78;;;3.62;80.00
56241;BME280;42155;53.096;23.226;2023-04-06T10:11:28;100143.22;;;3.71;80.38
56241;BME280;42155;53.096;23.226;2023-04-06T10:13:29;100135.41;;;3.70;79.47
56241;BME280;42155;53.096;23.226;2023-04-06T10:15:30;100128.53;;;3.67;80.29
56241;BME280;42155;53.096;23.226;2023-04-06T10:17:30;100138.09;;;3.68;80.29
56241;BME280;42155;53.096;23.226;2023-04-06T10:19:46;100135.16;;;3.74;79.39
56241;BME280;42155;53.096;23.226;2023-04-06T10:21:51;100106.84;;;3.64;79.62
56241;BME280;42155;53.096;23.226;2023-04-06T10:23:58;100120.13;;;3.78;79.68
56241;BME280;42155;53.096;23.226;2023-04-06T10:26:00;100133.84;;;3.83;79.89
56241;BME280;42155;53.096;23.226;2023-04-06T10:28:05;100119.19;;;3.96;79.15
56241;BME280;42155;53.096;23.226;2023-04-06T10:30:06;100124.91;;;4.04;78.72
56241;BME280;42155;53.096;23.226;2023-04-06T10:32:07;100129.69;;;4.14;78.79
56241;BME280;42155;53.096;23.226;2023-04-06T10:34:07;100128.75;;;4.15;78.80